Time;durP1;ratioP1;P1;durP2;ratioP2;P2;SDS_P1;SDS_P2;PMS_P1;PMS_P2;Temp;Humidity;BMP_temperature;BMP_pressure;BME280_temperature;BME280_humidity;BME280_pressure;Samples;Min_cycle;Max_cycle;Signal;HPM_P1;HPM_P2
2022/05/16 00:02:05;;;;;;;5.25;1.42;;;16.60;99.90;;;16.07;100.00;97370.88;4982180;28;20145;-71
2022/05/16 00:04:36;;;;;;;3.63;1.35;;;16.60;99.90;;;16.01;100.00;97367.84;4981006;28;20046;-71
2022/05/16 00:07:04;;;;;;;4.28;1.60;;;16.50;99.90;;;15.88;100.00;97367.84;4980563;28;20055;-70
2022/05/16 00:09:31;;;;;;;4.75;1.55;;;16.50;99.90;;;15.87;100.00;97363.53;4982521;28;20058;-70
2022/05/16 00:11:58;;;;;;;4.97;1.30;;;16.50;99.90;;;16.03;100.00;97369.44;4978813;28;20065;-70
2022/05/16 00:14:26;;;;;;;4.85;1.33;;;16.50;99.90;;;15.95;100.00;97374.34;4977016;28;20120;-71
2022/05/16 00:16:53;;;;;;;4.97;1.42;;;16.50;99.90;;;15.81;100.00;97370.03;4982954;28;20508;-70
2022/05/16 00:19:20;;;;;;;4.43;1.25;;;16.40;99.90;;;15.77;100.00;97371.19;4980458;28;20054;-71
2022/05/16 00:21:47;;;;;;;6.22;1.50;;;16.40;99.90;;;15.82;100.00;97370.88;4978686;28;20133;-71
2022/05/16 00:24:14;;;;;;;3.45;1.40;;;16.30;99.90;;;15.54;100.00;97375.28;4981376;28;20489;-71
2022/05/16 00:26:41;;;;;;;5.15;1.35;;;16.30;99.90;;;15.53;100.00;97371.03;4978180;28;20109;-71
2022/05/16 00:29:08;;;;;;;3.88;1.35;;;16.20;99.90;;;15.62;100.00;97373.03;4982177;28;20133;-71
2022/05/16 00:31:35;;;;;;;5.38;1.20;;;16.20;99.90;;;15.68;100.00;97377.81;4979786;28;20108;-71
2022/05/16 00:34:04;;;;;;;3.25;1.25;;;16.30;99.90;;;15.73;100.00;97376.72;4979345;28;20502;-70
2022/05/16 00:36:31;;;;;;;2.53;0.98;;;16.30;99.90;;;15.76;100.00;97384.34;4980532;28;20604;-70
2022/05/16 00:38:58;;;;;;;3.63;1.35;;;16.30;99.90;;;15.50;100.00;97397.34;4980691;28;20101;-71
2022/05/16 00:41:25;;;;;;;2.92;1.42;;;16.20;99.90;;;15.88;100.00;97387.00;4978984;28;20098;-70
2022/05/16 00:43:57;;;;;;;3.50;1.50;;;16.20;99.90;;;16.13;100.00;97389.75;4981062;28;20686;-71
2022/05/16 00:46:29;;;;;;;3.37;1.30;;;16.20;99.90;;;16.09;100.00;97386.50;4978281;28;20178;-70
2022/05/16 00:48:58;;;;;;;3.35;1.20;;;16.30;99.90;;;16.12;100.00;97394.13;4983860;28;20797;-70
2022/05/16 00:51:33;;;;;;;3.30;1.30;;;16.40;99.90;;;16.01;100.00;97397.50;4982816;28;20049;-70
2022/05/16 00:54:20;;;;;;;3.72;1.55;;;16.40;99.90;;;15.62;100.00;97391.34;5008179;28;20464;-71
2022/05/16 00:56:51;;;;;;;4.97;1.65;;;16.40;99.90;;;15.54;100.00;97403.25;4994854;28;20073;-70
2022/05/16 00:59:19;;;;;;;5.63;1.77;;;16.20;99.90;;;15.53;100.00;97399.78;4982446;28;20054;-71
2022/05/16 01:04:50;;;;;;;3.65;1.58;;;16.00;99.90;;;15.52;100.00;97390.25;4981529;28;20547;-70
2022/05/16 01:07:28;;;;;;;4.03;1.75;;;16.00;99.90;;;15.41;100.00;97398.78;4982718;28;20066;-71
2022/05/16 01:09:56;;;;;;;4.80;1.65;;;16.20;99.90;;;15.19;100.00;97403.72;5012859;28;20145;-70
2022/05/16 01:12:31;;;;;;;4.43;1.30;;;16.10;99.90;;;15.19;100.00;97399.34;4981564;28;20054;-70
2022/05/16 01:15:00;;;;;;;3.63;1.40;;;16.10;99.90;;;15.31;100.00;97389.88;4983958;28;20137;-70
2022/05/16 01:17:27;;;;;;;3.53;1.40;;;16.00;99.90;;;15.38;100.00;97385.09;4981611;28;20130;-70
2022/05/16 01:19:54;;;;;;;2.55;1.42;;;15.90;99.90;;;15.29;100.00;97385.69;4982380;28;20086;-70
2022/05/16 01:22:46;;;;;;;4.30;1.50;;;15.90;99.90;;;15.12;100.00;97387.63;4979517;28;20054;-70
2022/05/16 01:25:28;;;;;;;3.95;1.60;;;15.90;99.90;;;14.94;100.00;97380.91;4984053;28;20064;-70
2022/05/16 01:28:04;;;;;;;4.28;1.52;;;15.80;99.90;;;15.12;100.00;97368.47;4979060;28;20479;-70
2022/05/16 01:30:37;;;;;;;6.03;1.70;;;15.70;99.90;;;15.11;100.00;97372.03;4981692;28;20120;-70
2022/05/16 01:33:04;;;;;;;3.33;1.52;;;15.70;99.90;;;14.71;100.00;97372.78;4982270;28;20097;-70
2022/05/16 01:35:33;;;;;;;3.53;1.40;;;15.70;99.90;;;14.92;100.00;97369.75;4980758;28;20047;-70
2022/05/16 01:38:18;;;;;;;4.45;1.90;;;15.60;99.90;;;14.73;100.00;97363.03;4981129;28;20039;-70
2022/05/16 01:41:04;;;;;;;3.92;1.70;;;15.50;99.90;;;14.88;100.00;97370.88;4978885;28;20129;-70
2022/05/16 01:43:36;;;;;;;5.25;1.92;;;15.50;99.90;;;14.88;100.00;97358.66;4979815;28;20484;-70
2022/05/16 01:46:04;;;;;;;4.45;1.60;;;15.40;99.90;;;14.77;100.00;97366.31;4983737;28;20122;-70
2022/05/16 01:48:31;;;;;;;8.50;1.90;;;15.40;99.90;;;14.71;100.00;97367.56;4983671;28;20054;-70
2022/05/16 01:51:09;;;;;;;3.92;1.73;;;15.40;99.90;;;14.76;100.00;97369.88;4984598;28;20108;-71
2022/05/16 01:53:37;;;;;;;3.50;1.60;;;15.40;99.90;;;14.70;100.00;97385.94;4987181;28;20508;-70
2022/05/16 01:56:04;;;;;;;6.07;1.70;;;15.40;99.90;;;14.67;100.00;97396.59;4982530;28;20061;-70
2022/05/16 01:58:31;;;;;;;5.70;1.70;;;15.30;99.90;;;14.75;100.00;97395.16;4984868;28;20133;-71
2022/05/16 02:00:58;;;;;;;4.88;1.50;;;15.30;99.90;;;15.02;100.00;97392.56;4980665;28;20054;-70
2022/05/16 02:03:26;;;;;;;4.78;1.45;;;15.40;99.90;;;15.19;100.00;97381.06;4986428;28;20053;-70
2022/05/16 02:05:54;;;;;;;4.05;1.50;;;15.60;99.90;;;14.84;100.00;97396.34;4982427;28;20130;-71
2022/05/16 02:08:21;;;;;;;7.22;1.83;;;15.50;99.90;;;14.74;100.00;97400.50;4982868;28;20465;-70
2022/05/16 02:10:48;;;;;;;5.05;1.48;;;15.40;99.90;;;14.66;100.00;97405.34;4986529;28;20070;-70
2022/05/16 02:13:16;;;;;;;3.53;1.58;;;15.30;99.90;;;14.69;100.00;97406.00;4983257;28;20397;-70
2022/05/16 02:15:45;;;;;;;4.03;1.70;;;15.30;99.90;;;14.62;100.00;97413.38;4984668;28;20051;-71
2022/05/16 02:18:12;;;;;;;3.85;1.55;;;15.30;99.90;;;14.96;100.00;97398.22;4984165;28;20158;-69
2022/05/16 02:20:40;;;;;;;4.47;1.45;;;15.40;99.90;;;15.13;100.00;97393.69;4984805;28;20117;-69
2022/05/16 02:25:57;;;;;;;4.43;1.73;;;15.60;99.90;;;14.95;100.00;97386.06;4985450;28;20168;-69
2022/05/16 02:28:25;;;;;;;3.80;1.50;;;15.60;99.90;;;14.91;100.00;97375.91;4984682;28;20050;-69
2022/05/16 02:30:54;;;;;;;5.13;1.48;;;15.50;99.90;;;15.00;100.00;97384.00;4981681;28;20109;-69
2022/05/16 02:33:22;;;;;;;5.57;1.75;;;15.50;99.90;;;15.07;100.00;97387.06;4982714;28;20055;-69
2022/05/16 02:35:50;;;;;;;4.28;1.50;;;15.60;99.90;;;14.91;100.00;97389.78;4981558;28;20576;-69
2022/05/16 02:38:18;;;;;;;3.83;1.88;;;15.70;99.90;;;14.73;100.00;97398.78;4982396;28;20133;-69
2022/05/16 02:40:46;;;;;;;3.22;1.55;;;15.60;99.90;;;14.87;100.00;97387.47;4986275;28;20078;-69
2022/05/16 02:43:13;;;;;;;5.40;1.73;;;15.50;99.90;;;14.91;100.00;97395.03;4981582;28;20070;-69
2022/05/16 02:45:40;;;;;;;4.60;1.50;;;15.60;99.90;;;15.03;100.00;97394.25;4986237;28;20519;-70
2022/05/16 02:48:08;;;;;;;8.82;2.22;;;15.60;99.90;;;15.08;100.00;97395.75;4984298;28;20085;-70
2022/05/16 02:50:35;;;;;;;4.05;1.90;;;15.70;99.90;;;15.18;100.00;97394.22;4984131;28;20086;-70
2022/05/16 02:53:02;;;;;;;6.13;2.03;;;15.70;99.90;;;15.31;100.00;97392.50;4986573;28;20130;-71
2022/05/16 02:55:31;;;;;;;7.65;1.88;;;15.80;99.90;;;15.29;100.00;97393.53;4986243;28;20082;-71
2022/05/16 02:57:59;;;;;;;4.28;1.60;;;15.90;99.90;;;15.35;100.00;97380.03;4983984;28;20154;-70
2022/05/16 03:00:26;;;;;;;7.72;1.77;;;15.90;99.90;;;15.36;100.00;97382.56;4982081;28;20050;-70
2022/05/16 03:02:53;;;;;;;3.45;1.90;;;15.90;99.90;;;15.38;100.00;97377.25;4981519;28;20453;-70
2022/05/16 03:05:20;;;;;;;5.35;1.55;;;15.90;99.90;;;15.54;100.00;97383.16;4982996;28;20442;-70
2022/05/16 03:07:48;;;;;;;4.65;1.42;;;15.90;99.90;;;15.55;100.00;97381.38;4985540;28;20054;-70
2022/05/16 03:10:15;;;;;;;3.70;1.65;;;16.00;99.90;;;15.66;100.00;97371.84;4983812;28;20058;-70
2022/05/16 03:12:45;;;;;;;4.82;1.67;;;16.00;99.90;;;15.33;100.00;97381.94;4984566;28;20054;-70
2022/05/16 03:15:14;;;;;;;4.10;1.70;;;16.00;99.90;;;15.47;100.00;97380.09;4982827;28;20078;-70
2022/05/16 03:17:42;;;;;;;5.18;1.60;;;16.00;99.90;;;15.31;100.00;97383.81;4979367;28;20050;-71
2022/05/16 03:20:12;;;;;;;4.03;2.00;;;15.90;99.90;;;15.23;100.00;97387.75;4982685;28;20497;-70
2022/05/16 03:22:41;;;;;;;4.85;1.80;;;15.80;99.90;;;15.33;100.00;97390.63;4981863;28;20133;-70
2022/05/16 03:25:09;;;;;;;3.33;1.75;;;15.90;99.90;;;15.50;100.00;97381.66;4989056;28;20095;-70
2022/05/16 03:27:36;;;;;;;4.53;1.80;;;15.90;99.90;;;15.43;100.00;97375.16;4985736;28;20145;-71
2022/05/16 03:30:07;;;;;;;4.35;1.85;;;15.90;99.90;;;15.40;100.00;97384.06;4981866;28;20125;-70
2022/05/16 03:32:34;;;;;;;4.03;1.88;;;15.90;99.90;;;15.22;100.00;97386.06;4986226;28;20549;-71
2022/05/16 03:35:01;;;;;;;4.60;1.60;;;15.90;99.90;;;15.28;100.00;97377.00;4983500;28;20173;-70
2022/05/16 03:37:28;;;;;;;3.80;1.70;;;15.80;99.90;;;15.38;100.00;97372.84;4982416;28;20053;-71
2022/05/16 03:42:40;;;;;;;3.20;1.65;;;15.80;99.90;;;15.46;100.00;97380.19;4984475;28;20051;-70
2022/05/16 03:45:08;;;;;;;8.43;2.33;;;15.90;99.90;;;15.42;100.00;97370.88;4981414;28;20101;-71
2022/05/16 03:47:35;;;;;;;3.47;1.50;;;15.90;99.90;;;15.63;100.00;97377.31;4981691;28;20058;-70
2022/05/16 03:50:02;;;;;;;2.60;1.55;;;15.90;99.90;;;15.56;100.00;97365.56;4982091;28;20160;-70
2022/05/16 03:52:29;;;;;;;6.22;1.90;;;15.90;99.90;;;15.48;100.00;97380.91;4982200;28;20513;-70
2022/05/16 03:54:56;;;;;;;4.57;1.90;;;16.00;99.90;;;15.37;100.00;97373.81;4981092;28;20050;-70
2022/05/16 03:57:23;;;;;;;3.78;2.10;;;16.10;99.90;;;15.01;100.00;97372.63;4981489;28;20272;-70
2022/05/16 03:59:51;;;;;;;8.30;2.40;;;16.10;99.90;;;14.92;100.00;97378.44;4986178;28;20127;-70
2022/05/16 04:02:17;;;;;;;7.35;2.95;;;16.00;99.90;;;14.95;100.00;97382.63;4985222;28;20140;-71
2022/05/16 04:04:45;;;;;;;6.22;2.28;;;15.90;99.90;;;15.30;100.00;97379.50;4978889;28;20130;-71
2022/05/16 04:07:12;;;;;;;5.75;2.28;;;16.00;99.90;;;15.32;100.00;97380.25;4984753;28;20162;-71
2022/05/16 04:09:39;;;;;;;6.18;2.20;;;16.10;99.90;;;15.35;100.00;97385.28;4981650;28;20050;-71
2022/05/16 04:12:06;;;;;;;3.42;1.58;;;16.10;99.90;;;15.29;100.00;97378.69;4982156;28;20046;-70
2022/05/16 04:14:33;;;;;;;6.40;2.20;;;16.20;99.90;;;15.44;100.00;97388.16;4980616;28;20161;-71
2022/05/16 04:17:02;;;;;;;6.20;2.63;;;16.20;99.90;;;15.68;100.00;97382.22;4979531;28;20047;-69
2022/05/16 04:19:29;;;;;;;6.18;2.80;;;16.30;99.90;;;16.40;100.00;97384.38;4980210;28;20050;-69
2022/05/16 04:21:56;;;;;;;6.32;2.15;;;16.60;99.90;;;16.68;100.00;97380.69;4981123;28;20560;-69
2022/05/16 04:24:23;;;;;;;16.85;2.88;;;16.90;99.90;;;17.03;100.00;97380.00;4982622;28;20145;-69
2022/05/16 04:26:50;;;;;;;7.78;1.98;;;17.20;99.90;;;17.10;100.00;97368.09;4976528;28;20144;-69
2022/05/16 04:29:17;;;;;;;10.85;2.35;;;17.50;99.90;;;17.13;100.00;97373.97;4979349;28;20146;-69
2022/05/16 04:31:44;;;;;;;6.55;2.60;;;17.70;99.90;;;17.23;100.00;97373.31;4979359;28;20130;-71
2022/05/16 04:34:11;;;;;;;7.53;2.50;;;17.80;99.90;;;17.34;100.00;97365.50;4976042;28;20070;-71
2022/05/16 04:36:41;;;;;;;7.68;2.45;;;17.90;99.90;;;17.43;100.00;97371.84;4978216;28;20138;-72
2022/05/16 04:39:08;;;;;;;6.50;2.38;;;18.00;99.90;;;17.50;100.00;97359.94;4976003;28;20503;-71
2022/05/16 04:44:20;;;;;;;8.65;2.70;;;18.10;99.90;;;17.52;100.00;97368.56;4975923;28;20058;-69
2022/05/16 04:46:48;;;;;;;5.07;2.45;;;18.20;99.90;;;17.53;100.00;97367.59;4975952;28;20121;-70
2022/05/16 04:49:15;;;;;;;8.10;2.92;;;18.20;99.90;;;17.49;100.00;97368.75;4973949;28;20533;-71
2022/05/16 04:51:42;;;;;;;7.72;2.60;;;18.20;99.90;;;17.50;100.00;97376.53;4975814;28;20054;-70
2022/05/16 04:54:09;;;;;;;10.18;2.70;;;18.30;99.90;;;17.58;100.00;97375.94;4973395;28;20061;-71
2022/05/16 04:56:36;;;;;;;7.57;2.55;;;18.30;99.90;;;17.53;100.00;97376.28;4973596;28;20078;-71
2022/05/16 04:59:04;;;;;;;10.25;2.65;;;18.30;99.90;;;17.56;100.00;97381.34;4977575;28;20086;-70
2022/05/16 05:01:31;;;;;;;7.45;2.53;;;18.30;99.90;;;17.50;100.00;97375.69;4972507;28;20058;-71
2022/05/16 05:03:58;;;;;;;8.70;2.70;;;18.30;99.90;;;17.59;100.00;97375.00;4974332;28;20050;-70
2022/05/16 05:06:26;;;;;;;8.60;2.35;;;18.30;99.90;;;17.60;100.00;97384.56;4976814;28;20042;-71
2022/05/16 05:08:52;;;;;;;8.40;2.67;;;18.30;99.90;;;17.61;100.00;97385.38;4974410;28;20046;-71
2022/05/16 05:16:52;;;;;;;5.93;2.28;;;18.20;99.90;;;17.30;100.00;97411.25;4974717;28;20125;-71
2022/05/16 05:19:19;;;;;;;10.35;2.85;;;18.20;99.90;;;17.24;100.00;97423.03;4975252;28;20787;-71
2022/05/16 05:21:46;;;;;;;11.00;2.70;;;18.20;99.90;;;17.13;100.00;97422.97;4976932;28;20129;-71
2022/05/16 05:24:13;;;;;;;8.82;2.60;;;18.10;99.90;;;17.14;100.00;97424.63;4976315;28;20056;-71
2022/05/16 05:26:42;;;;;;;8.30;2.75;;;18.10;99.90;;;17.17;100.00;97423.56;4975338;28;20507;-71
2022/05/16 05:29:11;;;;;;;7.60;3.25;;;18.00;99.90;;;17.01;100.00;97429.91;4981386;28;20050;-69
2022/05/16 05:31:39;;;;;;;8.68;3.22;;;18.00;99.90;;;17.12;100.00;97429.97;4977893;28;20081;-69
2022/05/16 05:34:11;;;;;;;9.68;2.97;;;17.90;99.90;;;17.00;100.00;97432.66;4960365;28;20050;-70
2022/05/16 05:36:40;;;;;;;11.77;2.87;;;17.90;99.90;;;17.12;100.00;97432.59;4980737;28;20043;-70
2022/05/16 05:39:08;;;;;;;10.80;3.05;;;18.00;99.90;;;17.22;100.00;97434.56;4978159;28;20309;-71
2022/05/16 05:41:35;;;;;;;10.27;2.75;;;18.10;99.90;;;17.43;100.00;97429.59;4979984;28;20047;-70
2022/05/16 05:44:03;;;;;;;16.88;3.10;;;18.30;99.90;;;17.56;100.00;97443.47;4979628;28;20137;-70
2022/05/16 05:46:40;;;;;;;8.10;2.60;;;18.40;99.90;;;17.46;100.00;97440.69;4978504;28;20050;-70
2022/05/16 05:49:09;;;;;;;7.85;2.75;;;18.50;99.90;;;17.53;100.00;97433.19;4980503;28;20287;-69
2022/05/16 05:51:37;;;;;;;8.85;2.78;;;18.50;99.90;;;17.58;100.00;97436.31;4978091;28;20055;-70
2022/05/16 05:54:05;;;;;;;10.85;2.80;;;18.40;99.90;;;17.43;100.00;97446.16;4977482;28;20137;-71
2022/05/16 05:56:33;;;;;;;8.43;2.17;;;18.40;99.90;;;17.40;100.00;97462.09;4978419;28;20145;-69
2022/05/16 05:59:00;;;;;;;11.57;2.90;;;18.30;99.90;;;17.31;100.00;97442.63;4976310;28;20129;-71
2022/05/16 06:01:27;;;;;;;7.47;2.50;;;18.30;99.90;;;17.34;100.00;97462.56;4973957;28;20052;-69
2022/05/16 06:03:54;;;;;;;8.93;2.70;;;18.20;99.90;;;17.30;100.00;97463.72;4978543;28;20085;-69
2022/05/16 06:06:21;;;;;;;7.15;2.67;;;18.20;99.90;;;17.27;100.00;97462.16;4983520;28;20120;-71
2022/05/16 06:08:48;;;;;;;7.78;2.60;;;18.20;99.90;;;17.34;100.00;97467.81;4981356;28;20141;-69
2022/05/16 06:11:16;;;;;;;6.57;2.55;;;18.10;99.90;;;17.30;100.00;97461.09;4978610;28;20058;-69
2022/05/16 06:13:44;;;;;;;13.40;3.42;;;18.10;99.90;;;17.27;100.00;97474.44;4977165;28;20105;-71
2022/05/16 06:16:11;;;;;;;41.47;3.83;;;18.20;99.90;;;17.46;100.00;97466.91;4979056;28;20060;-70
2022/05/16 06:18:38;;;;;;;6.82;2.55;;;18.40;99.90;;;17.70;100.00;97463.47;4980703;28;20053;-70
2022/05/16 06:21:05;;;;;;;8.32;2.85;;;18.60;99.90;;;17.88;100.00;97467.41;4978520;28;20046;-70
2022/05/16 06:23:32;;;;;;;14.10;3.50;;;18.70;99.90;;;18.02;100.00;97469.00;4981077;28;20050;-70
2022/05/16 06:26:00;;;;;;;9.77;2.70;;;18.90;99.90;;;17.92;100.00;97481.94;4979007;28;20137;-70
2022/05/16 06:28:29;;;;;;;6.40;2.28;;;18.90;99.90;;;18.12;100.00;97475.22;4979363;28;20077;-70
2022/05/16 06:30:58;;;;;;;5.97;2.05;;;19.10;99.90;;;17.92;100.00;97491.63;4979703;28;20209;-71
2022/05/16 06:33:26;;;;;;;9.73;3.22;;;19.20;99.90;;;18.21;100.00;97484.22;4981296;28;20195;-70
2022/05/16 06:35:53;;;;;;;8.45;2.92;;;19.30;99.90;;;18.43;100.00;97478.19;4978652;28;20140;-70
2022/05/16 06:38:25;;;;;;;5.72;2.38;;;19.40;99.90;;;18.44;100.00;97492.16;4979347;28;20563;-70
2022/05/16 06:40:53;;;;;;;6.15;2.40;;;19.50;99.90;;;18.31;100.00;97500.94;4977508;28;20112;-70
2022/05/16 06:43:23;;;;;;;8.02;3.03;;;19.60;99.90;;;18.63;100.00;97494.19;4973703;28;20076;-71
2022/05/16 06:45:51;;;;;;;7.43;2.13;;;19.80;99.90;;;18.78;100.00;97493.91;4976721;28;20144;-70
2022/05/16 06:48:18;;;;;;;12.00;2.08;;;20.00;99.90;;;18.76;100.00;97473.91;4977008;28;20680;-70
2022/05/16 06:50:48;;;;;;;10.77;3.05;;;20.00;99.90;;;18.59;100.00;97506.75;4987205;28;20137;-70
2022/05/16 06:53:26;;;;;;;10.38;2.63;;;19.90;99.90;;;18.67;100.00;97504.38;4975296;28;20599;-71
2022/05/16 06:55:55;;;;;;;11.13;2.85;;;19.80;99.90;;;18.53;100.00;97501.97;4973201;28;20583;-70
2022/05/16 06:58:22;;;;;;;8.43;2.88;;;19.80;99.90;;;18.35;100.00;97512.06;4974454;28;20177;-70
2022/05/16 07:00:50;;;;;;;9.90;2.17;;;19.60;99.90;;;18.43;100.00;97514.97;4975925;28;20137;-71
2022/05/16 07:03:17;;;;;;;10.50;2.85;;;19.50;99.90;;;18.49;100.00;97513.66;4975067;28;20108;-70
2022/05/16 07:05:50;;;;;;;10.18;2.60;;;19.60;99.90;;;18.49;100.00;97513.66;4977989;28;20082;-70
2022/05/16 07:08:21;;;;;;;7.50;2.97;;;19.60;99.90;;;18.35;100.00;97531.28;4976159;28;20159;-70
2022/05/16 07:10:50;;;;;;;9.93;2.33;;;19.70;99.90;;;18.50;100.00;97515.34;4976195;28;20132;-70
2022/05/16 07:13:26;;;;;;;6.70;2.78;;;19.80;99.90;;;18.60;100.00;97516.31;4976355;28;20130;-70
2022/05/16 07:15:54;;;;;;;11.63;3.17;;;19.80;99.90;;;18.85;100.00;97531.06;4977376;28;20093;-70
2022/05/16 07:18:23;;;;;;;9.15;2.53;;;19.90;99.90;;;18.63;100.00;97516.06;4975181;28;20512;-70
2022/05/16 07:20:50;;;;;;;10.10;3.08;;;19.90;99.90;;;18.80;100.00;97517.44;4978770;28;20481;-70
2022/05/16 07:23:17;;;;;;;11.82;2.53;;;20.00;99.90;;;18.86;100.00;97516.13;4979786;28;20141;-70
2022/05/16 07:28:30;;;;;;;11.30;2.80;;;20.00;99.90;;;18.87;100.00;97523.06;4977425;28;20053;-70
2022/05/16 07:30:58;;;;;;;8.75;2.65;;;20.10;99.90;;;19.03;100.00;97536.72;4976351;28;20053;-70
2022/05/16 07:33:25;;;;;;;7.25;3.00;;;20.20;99.90;;;19.02;100.00;97538.50;4976320;28;20334;-70
2022/05/16 07:35:54;;;;;;;8.23;3.00;;;20.30;99.90;;;19.25;100.00;97540.28;4979053;28;20116;-70
2022/05/16 07:38:25;;;;;;;11.55;2.85;;;20.40;99.90;;;19.16;100.00;97547.97;4976573;28;20061;-70
2022/05/16 07:40:53;;;;;;;7.22;2.67;;;20.50;99.90;;;19.32;100.00;97537.06;5003425;28;20050;-70
2022/05/16 07:43:21;;;;;;;9.20;2.85;;;20.60;99.90;;;19.27;100.00;97535.75;4976469;28;20061;-70
2022/05/16 07:45:48;;;;;;;10.05;2.22;;;20.60;99.90;;;19.52;100.00;97532.84;4976399;28;20473;-70
2022/05/16 07:48:16;;;;;;;9.88;2.55;;;20.70;99.90;;;19.74;100.00;97529.34;4977244;28;20120;-70
2022/05/16 07:50:44;;;;;;;12.55;3.05;;;20.80;99.90;;;19.88;100.00;97530.03;4974274;28;20082;-70
2022/05/16 07:53:13;;;;;;;9.73;2.50;;;20.90;99.90;;;19.84;100.00;97529.44;4973764;28;20073;-70
2022/05/16 07:55:49;;;;;;;8.35;2.97;;;21.10;99.90;;;20.13;100.00;97542.03;4975301;28;20061;-70
2022/05/16 07:58:17;;;;;;;7.43;2.40;;;21.20;99.90;;;20.07;100.00;97553.94;4975157;28;20137;-70
2022/05/16 08:00:44;;;;;;;8.40;3.08;;;21.20;99.90;;;20.46;100.00;97541.91;4976173;28;20134;-70
2022/05/16 08:03:20;;;;;;;10.32;2.10;;;21.40;99.90;;;20.48;100.00;97547.00;4978489;28;20058;-70
2022/05/16 08:05:48;;;;;;;7.55;2.47;;;21.60;99.90;;;20.32;100.00;97541.34;4980814;28;20235;-70
2022/05/16 08:11:02;;;;;;;10.75;2.75;;;21.60;99.90;;;20.61;100.00;97562.69;4975972;28;20085;-70
2022/05/16 08:13:30;;;;;;;16.50;3.22;;;21.80;99.90;;;20.67;100.00;97547.19;4980202;28;20505;-70
2022/05/16 08:15:58;;;;;;;5.57;2.55;;;22.00;99.90;;;20.76;100.00;97557.94;4977089;28;20476;-70
2022/05/16 08:18:26;;;;;;;9.40;2.45;;;22.10;99.90;;;20.99;100.00;97551.53;4978870;28;20152;-70
2022/05/16 08:20:54;;;;;;;7.60;2.70;;;22.10;99.90;;;20.77;100.00;97570.97;4976523;28;20137;-70
2022/05/16 08:23:26;;;;;;;4.28;2.45;;;22.30;99.90;;;20.91;100.00;97571.63;5004932;28;20232;-70
2022/05/16 08:25:55;;;;;;;7.35;2.97;;;22.30;99.90;;;20.96;100.00;97546.53;4976519;28;20089;-70
2022/05/16 08:28:23;;;;;;;10.68;3.03;;;22.30;99.90;;;20.97;100.00;97579.03;4960388;28;20181;-70
2022/05/16 08:30:51;;;;;;;12.07;3.10;;;22.40;99.90;;;20.93;100.00;97583.72;4973394;28;20093;-71
2022/05/16 08:33:18;;;;;;;10.18;2.85;;;22.50;99.90;;;21.11;100.00;97562.84;4974722;28;20417;-70
2022/05/16 08:39:51;;;;;;;8.32;2.60;;;22.60;99.90;;;21.38;100.00;97545.59;4989543;28;20165;-70
2022/05/16 08:41:43;;;;;;;7.88;2.85;;;22.80;99.90;;;21.55;100.00;97567.91;4971437;28;20174;-70
2022/05/16 08:44:30;;;;;;;7.60;2.60;;;22.90;99.90;;;21.54;100.00;97571.53;4970353;28;20086;-70
2022/05/16 08:47:37;;;;;;;6.15;2.60;;;23.10;99.90;;;21.59;100.00;97582.53;4976846;28;20568;-70
2022/05/16 08:50:42;;;;;;;9.43;2.42;;;23.20;99.90;;;21.58;100.00;97596.72;4973386;28;20097;-71
2022/05/16 08:53:27;;;;;;;7.20;2.47;;;23.40;99.90;;;21.74;100.00;97597.03;4972376;28;20555;-70
2022/05/16 08:56:05;;;;;;;7.43;2.42;;;23.60;99.90;;;22.12;100.00;97601.56;4973214;28;20411;-71
2022/05/16 08:59:00;;;;;;;13.63;2.60;;;23.70;99.90;;;21.77;100.00;97617.88;4977149;28;20139;-70
2022/05/16 09:01:51;;;;;;;9.85;2.60;;;24.00;99.90;;;21.98;100.00;97617.78;4977289;28;20538;-70
2022/05/16 09:04:30;;;;;;;7.75;2.58;;;24.20;99.90;;;22.12;100.00;97624.50;4977843;28;20447;-70
2022/05/16 09:07:01;;;;;;;10.30;3.35;;;24.20;99.90;;;22.53;100.00;97619.97;4980394;28;20138;-70
2022/05/16 09:10:05;;;;;;;10.23;2.72;;;24.30;99.90;;;22.97;100.00;97613.25;4981083;28;20053;-70
2022/05/16 09:12:59;;;;;;;7.60;2.42;;;24.60;99.90;;;23.36;100.00;97615.81;4982072;28;20054;-70
2022/05/16 09:15:32;;;;;;;7.43;2.45;;;25.00;99.90;;;23.44;100.00;97624.84;4981968;28;20076;-70
2022/05/16 09:18:27;;;;;;;14.48;2.20;;;25.20;99.90;;;23.45;100.00;97629.19;4982151;28;20074;-70
2022/05/16 09:21:14;;;;;;;8.82;2.28;;;25.20;99.90;;;24.58;100.00;97631.50;4979972;28;20056;-70
2022/05/16 09:23:58;;;;;;;8.35;2.53;;;25.50;99.90;;;23.13;100.00;97651.59;4984550;28;20051;-70
2022/05/16 09:26:51;;;;;;;4.47;2.15;;;25.70;99.90;;;23.17;100.00;97639.69;4982088;28;20059;-70
2022/05/16 09:29:26;;;;;;;11.18;2.45;;;25.30;99.90;;;23.15;100.00;97657.56;4985185;28;20108;-70
2022/05/16 09:32:09;;;;;;;12.63;2.85;;;25.00;99.90;;;22.86;100.00;97658.41;4984584;28;20060;-70
2022/05/16 09:34:36;;;;;;;9.15;2.78;;;25.00;99.90;;;23.13;100.00;97647.13;4970373;28;20086;-70
2022/05/16 09:37:03;;;;;;;12.55;2.78;;;24.70;99.90;;;22.40;100.00;97667.88;4984613;28;20061;-71
2022/05/16 09:39:35;;;;;;;11.15;2.28;;;24.50;99.90;;;22.22;100.00;97643.91;4982910;28;20572;-70
2022/05/16 09:42:15;;;;;;;14.25;3.40;;;24.10;99.90;;;22.50;100.00;97649.34;4984165;28;20046;-70
2022/05/16 09:44:55;;;;;;;10.32;2.47;;;24.00;99.90;;;22.53;100.00;97675.53;4985499;28;20555;-70
2022/05/16 09:47:28;;;;;;;8.15;2.42;;;23.90;99.90;;;22.01;100.00;97678.34;4979806;28;20264;-70
2022/05/16 09:50:23;;;;;;;10.40;2.85;;;23.70;99.90;;;22.13;100.00;97692.28;4982310;28;20401;-69
2022/05/16 09:53:13;;;;;;;7.13;2.58;;;23.70;99.90;;;22.18;100.00;97674.19;4984252;28;20049;-69
2022/05/16 09:55:48;;;;;;;7.10;2.08;;;23.70;99.90;;;22.55;100.00;97694.75;4986651;28;20125;-69
2022/05/16 09:58:28;;;;;;;13.65;2.20;;;23.90;99.90;;;22.55;100.00;97682.34;4981469;28;20051;-69
2022/05/16 10:01:06;;;;;;;12.98;1.55;;;24.20;99.90;;;23.20;100.00;97713.59;4986915;28;20129;-68
2022/05/16 10:03:48;;;;;;;7.38;1.80;;;24.50;99.90;;;23.26;100.00;97689.16;4978821;28;20053;-68
2022/05/16 10:06:37;;;;;;;9.48;1.40;;;24.80;99.90;;;23.66;100.00;97700.50;4985764;28;20053;-68
2022/05/16 10:09:11;;;;;;;8.20;1.40;;;24.90;99.90;;;22.69;100.00;97706.72;4979054;28;20043;-72
2022/05/16 10:11:39;;;;;;;6.25;2.13;;;25.00;99.90;;;22.52;100.00;97692.38;4981188;28;20050;-71
2022/05/16 10:14:10;;;;;;;8.40;1.70;;;24.80;99.90;;;23.18;100.00;97710.25;4966183;28;20134;-71
2022/05/16 10:16:46;;;;;;;9.35;2.03;;;24.80;99.90;;;22.57;100.00;97703.38;4980501;28;20492;-71
2022/05/16 10:19:20;;;;;;;5.05;1.20;;;24.80;99.90;;;22.59;100.00;97690.84;4979731;28;20058;-70
2022/05/16 10:22:01;;;;;;;4.68;1.27;;;24.60;99.90;;;22.81;100.00;97708.28;4979747;28;20133;-72
2022/05/16 10:24:33;;;;;;;5.38;1.40;;;24.50;99.90;;;22.33;100.00;97706.41;4963523;28;20055;-70
2022/05/16 10:27:06;;;;;;;8.82;1.50;;;24.30;99.90;;;22.74;100.00;97689.47;4997141;28;20548;-71
2022/05/16 10:29:46;;;;;;;9.20;2.17;;;24.10;99.90;;;22.08;100.00;97710.34;4982712;28;20567;-70
2022/05/16 10:35:17;;;;;;;6.15;1.35;;;23.70;99.90;;;21.80;100.00;97714.53;4979292;28;20043;-69
2022/05/16 10:37:48;;;;;;;6.05;1.85;;;23.40;99.90;;;21.82;100.00;97704.69;4979680;28;20756;-69
2022/05/16 10:40:38;;;;;;;8.50;1.33;;;23.30;99.90;;;21.91;100.00;97714.44;4979987;28;20133;-69
2022/05/16 10:43:55;;;;;;;9.40;1.65;;;23.10;99.90;;;21.56;100.00;97707.75;4978674;28;20105;-69
2022/05/16 10:46:34;;;;;;;7.18;1.50;;;22.90;99.90;;;21.02;100.00;97721.97;4976743;28;20118;-69
2022/05/16 10:49:10;;;;;;;7.90;1.67;;;22.60;99.90;;;20.83;100.00;97717.38;4962105;28;20491;-70
2022/05/16 10:51:45;;;;;;;7.20;1.63;;;22.30;99.90;;;20.34;100.00;97711.59;4979083;28;20711;-70
2022/05/16 10:54:23;;;;;;;8.15;1.17;;;21.90;99.90;;;20.09;100.00;97730.34;4978618;28;20525;-69
2022/05/16 10:57:13;;;;;;;8.45;1.10;;;21.70;99.90;;;20.13;100.00;97737.88;4977962;28;20078;-69